createdAt,value
2022-11-13T00:00:53.446Z,30.28
2022-11-13T00:03:42.808Z,30.22
2022-11-13T00:06:31.826Z,30.19
2022-11-13T00:09:21.380Z,30.21
2022-11-13T00:12:10.259Z,30.21
2022-11-13T00:14:59.257Z,30.26
2022-11-13T00:17:48.334Z,30.24
2022-11-13T00:20:38.633Z,30.18
2022-11-13T00:23:28.026Z,30.06
2022-11-13T00:26:20.420Z,30.10
2022-11-13T00:29:09.330Z,30.15
2022-11-13T00:31:58.545Z,30.14
2022-11-13T00:34:48.328Z,30.20
2022-11-13T00:37:37.719Z,30.22
2022-11-13T00:40:26.849Z,30.31
2022-11-13T00:43:15.815Z,30.31
2022-11-13T00:46:04.743Z,30.33
2022-11-13T00:48:55.612Z,30.40
2022-11-13T00:51:44.440Z,30.32
2022-11-13T00:54:33.347Z,30.33
2022-11-13T00:57:22.663Z,30.22
2022-11-13T01:00:13.009Z,30.17
2022-11-13T01:03:03.064Z,30.23
2022-11-13T01:05:52.163Z,30.30
2022-11-13T01:08:41.432Z,30.35
2022-11-13T01:11:32.536Z,30.38
2022-11-13T01:14:21.491Z,30.39
2022-11-13T01:17:10.352Z,30.36
2022-11-13T01:19:59.667Z,30.39
2022-11-13T01:22:48.652Z,30.34
2022-11-13T01:25:37.659Z,30.33
2022-11-13T01:28:27.157Z,30.31
2022-11-13T01:31:20.608Z,30.31
2022-11-13T01:34:09.690Z,30.33
2022-11-13T01:36:58.466Z,30.32
2022-11-13T01:39:47.407Z,30.33
2022-11-13T01:42:37.390Z,30.33
2022-11-13T01:46:00.750Z,30.34
2022-11-13T01:48:56.419Z,30.38
2022-11-13T01:52:23.305Z,30.40
2022-11-13T01:55:16.659Z,30.38
2022-11-13T01:58:09.170Z,30.42
2022-11-13T02:00:58.609Z,30.45
2022-11-13T02:03:48.091Z,30.45
2022-11-13T02:06:55.845Z,30.57
2022-11-13T02:09:54.153Z,30.60
2022-11-13T02:12:46.410Z,30.65
2022-11-13T02:15:37.707Z,30.65
2022-11-13T02:18:29.561Z,30.66
2022-11-13T02:21:55.928Z,30.73
2022-11-13T02:24:50.937Z,30.75
2022-11-13T02:27:50.422Z,30.78
2022-11-13T02:30:42.028Z,30.80
2022-11-13T02:33:36.106Z,30.86
2022-11-13T02:36:28.501Z,30.91
2022-11-13T02:39:18.262Z,30.94
2022-11-13T02:42:07.778Z,30.89
2022-11-13T02:44:56.816Z,30.94
2022-11-13T02:47:46.477Z,30.97
2022-11-13T02:50:36.351Z,30.98
2022-11-13T02:53:25.693Z,31.02
2022-11-13T02:56:15.038Z,31.07
2022-11-13T02:59:04.039Z,31.09
2022-11-13T03:01:53.333Z,31.11
2022-11-13T03:05:10.369Z,31.14
2022-11-13T03:07:51.600Z,31.16
2022-11-13T03:10:41.204Z,31.15
2022-11-13T03:13:31.252Z,31.16
2022-11-13T03:16:20.904Z,31.13
2022-11-13T03:19:09.776Z,31.17
2022-11-13T03:21:59.054Z,31.20
2022-11-13T03:24:48.099Z,31.23
2022-11-13T03:27:37.112Z,31.28
2022-11-13T03:30:26.172Z,31.31
2022-11-13T03:33:15.414Z,31.38
2022-11-13T03:36:04.941Z,31.31
2022-11-13T03:38:54.242Z,31.32
2022-11-13T03:41:43.512Z,31.36
2022-11-13T03:44:32.641Z,31.39
2022-11-13T03:47:21.729Z,31.41
2022-11-13T03:50:11.496Z,31.43
2022-11-13T03:53:00.843Z,31.43
2022-11-13T03:55:50.165Z,31.49
2022-11-13T03:58:40.419Z,31.51
2022-11-13T04:01:30.091Z,31.53
2022-11-13T04:04:19.542Z,31.55
2022-11-13T04:07:08.783Z,31.73
2022-11-13T04:09:57.680Z,31.68
2022-11-13T04:12:47.018Z,31.75
2022-11-13T04:15:36.411Z,31.83
2022-11-13T04:18:25.957Z,31.73
2022-11-13T04:21:15.302Z,31.77
2022-11-13T04:24:04.341Z,31.74
2022-11-13T04:26:53.707Z,31.73
2022-11-13T04:29:42.524Z,31.73
2022-11-13T04:32:31.614Z,31.83
2022-11-13T04:35:20.669Z,31.85
2022-11-13T04:38:10.208Z,31.95
2022-11-13T04:41:19.147Z,31.93
2022-11-13T04:44:08.504Z,32.02
2022-11-13T04:46:57.653Z,32.11
2022-11-13T04:49:46.630Z,31.97
2022-11-13T04:52:36.287Z,31.98
2022-11-13T04:55:25.295Z,32.00
2022-11-13T04:58:14.408Z,32.01
2022-11-13T05:01:03.210Z,32.01
2022-11-13T05:03:52.111Z,31.99
2022-11-13T05:06:41.316Z,31.93
2022-11-13T05:09:30.537Z,32.16
2022-11-13T05:12:19.707Z,32.07
2022-11-13T05:15:09.774Z,32.17
2022-11-13T05:17:59.085Z,32.12
2022-11-13T05:20:48.101Z,31.86
2022-11-13T05:23:37.591Z,31.88
2022-11-13T05:26:26.663Z,31.84
2022-11-13T05:29:15.576Z,31.78
2022-11-13T05:32:04.551Z,31.87
2022-11-13T05:36:57.531Z,31.85
2022-11-13T05:39:46.469Z,31.78
2022-11-13T05:42:35.783Z,31.82
2022-11-13T05:45:25.682Z,31.85
2022-11-13T05:48:15.262Z,31.83
2022-11-13T05:51:10.020Z,31.86
2022-11-13T05:53:59.083Z,31.87
2022-11-13T05:56:48.447Z,31.97
2022-11-13T05:59:37.735Z,32.06
2022-11-13T06:02:26.913Z,31.98
2022-11-13T06:05:15.756Z,31.94
2022-11-13T06:08:04.648Z,31.94
2022-11-13T06:10:53.447Z,32.05
2022-11-13T06:13:42.837Z,32.04
2022-11-13T06:16:38.675Z,31.99
2022-11-13T06:19:27.921Z,32.07
2022-11-13T06:22:17.374Z,31.97
2022-11-13T06:25:06.489Z,31.87
2022-11-13T06:27:56.665Z,31.88
2022-11-13T06:30:45.863Z,31.96
2022-11-13T06:33:35.568Z,31.88
2022-11-13T06:36:31.304Z,31.94
2022-11-13T06:39:20.326Z,31.94
2022-11-13T06:42:09.089Z,32.01
2022-11-13T06:44:58.531Z,31.92
2022-11-13T06:47:47.665Z,31.86
2022-11-13T06:50:36.690Z,31.94
2022-11-13T06:53:25.877Z,31.93
2022-11-13T06:56:16.093Z,32.06
2022-11-13T06:59:08.290Z,32.01
2022-11-13T07:01:57.962Z,31.98
2022-11-13T07:04:46.999Z,32.10
2022-11-13T07:07:36.195Z,32.06
2022-11-13T07:10:25.402Z,32.11
2022-11-13T07:13:16.194Z,32.17
2022-11-13T07:16:16.879Z,32.09
2022-11-13T07:19:08.071Z,32.00
2022-11-13T07:21:57.190Z,32.03
2022-11-13T07:24:46.563Z,32.13
2022-11-13T07:27:35.650Z,32.13
2022-11-13T07:30:25.323Z,32.02
2022-11-13T07:33:14.462Z,32.11
2022-11-13T07:36:04.047Z,32.09
2022-11-13T07:38:57.924Z,32.07
2022-11-13T07:41:50.976Z,31.95
2022-11-13T07:44:54.241Z,31.93
2022-11-13T07:47:43.884Z,31.95
2022-11-13T07:50:35.815Z,31.87
2022-11-13T07:53:25.995Z,31.94
2022-11-13T07:56:20.230Z,32.12
2022-11-13T07:59:11.552Z,32.11
2022-11-13T08:02:00.681Z,31.96
2022-11-13T08:04:49.813Z,32.01
2022-11-13T08:07:39.011Z,32.00
2022-11-13T08:10:28.120Z,31.92
2022-11-13T08:13:17.150Z,32.04
2022-11-13T08:16:06.660Z,32.07
2022-11-13T08:18:55.608Z,32.25
2022-11-13T08:21:44.826Z,32.25
2022-11-13T08:24:33.852Z,32.23
2022-11-13T08:27:26.434Z,32.08
2022-11-13T08:30:16.241Z,32.12
2022-11-13T08:33:06.924Z,32.18
2022-11-13T08:36:01.218Z,32.17
2022-11-13T08:38:51.567Z,32.10
2022-11-13T08:41:40.465Z,32.03
2022-11-13T08:44:29.372Z,32.09
2022-11-13T08:47:20.221Z,32.16
2022-11-13T08:50:10.127Z,32.00
2022-11-13T08:53:00.293Z,32.12
2022-11-13T08:55:49.823Z,32.03
2022-11-13T08:58:38.978Z,31.97
2022-11-13T09:01:27.963Z,32.04
2022-11-13T09:04:16.862Z,32.15
2022-11-13T09:07:06.460Z,32.08
2022-11-13T09:09:55.667Z,32.22
2022-11-13T09:12:44.949Z,32.19
2022-11-13T09:15:35.601Z,32.04
2022-11-13T09:18:24.760Z,32.03
2022-11-13T09:21:13.931Z,32.01
2022-11-13T09:24:03.057Z,32.04
2022-11-13T09:26:52.260Z,31.99
2022-11-13T09:29:41.696Z,32.03
2022-11-13T09:32:30.942Z,32.11
2022-11-13T09:35:36.310Z,31.97
2022-11-13T09:38:25.732Z,32.16
2022-11-13T09:41:20.118Z,31.98
2022-11-13T09:44:18.591Z,31.96
2022-11-13T09:47:16.334Z,32.13
2022-11-13T09:50:14.773Z,32.18
2022-11-13T09:53:04.011Z,32.20
2022-11-13T09:56:19.324Z,32.16
2022-11-13T09:59:22.656Z,32.10
2022-11-13T10:02:11.835Z,32.22
2022-11-13T10:05:25.138Z,32.15
2022-11-13T10:08:21.016Z,32.14
2022-11-13T10:11:12.960Z,32.11
2022-11-13T10:14:04.726Z,32.12
2022-11-13T10:17:05.966Z,32.14
2022-11-13T10:20:12.273Z,32.20
2022-11-13T10:23:25.425Z,32.10
2022-11-13T10:26:21.693Z,32.13
2022-11-13T10:29:22.670Z,32.06
2022-11-13T10:32:30.167Z,32.23
2022-11-13T10:35:41.938Z,32.20
2022-11-13T10:38:37.922Z,32.06
2022-11-13T10:41:27.010Z,31.98
2022-11-13T10:44:29.370Z,31.93
2022-11-13T10:47:48.993Z,31.93
2022-11-13T10:50:34.230Z,31.93
2022-11-13T10:53:24.125Z,31.94
2022-11-13T10:56:33.571Z,31.93
2022-11-13T10:59:23.199Z,31.91
2022-11-13T11:02:20.545Z,31.89
2022-11-13T11:05:24.131Z,31.88
2022-11-13T11:08:14.169Z,31.91
2022-11-13T11:11:22.305Z,31.94
2022-11-13T11:14:25.736Z,31.97
2022-11-13T11:17:17.459Z,32.10
2022-11-13T11:20:16.762Z,32.17
2022-11-13T11:23:25.796Z,32.16
2022-11-13T11:26:45.902Z,32.19
2022-11-13T11:29:58.427Z,32.08
2022-11-13T11:33:04.128Z,32.06
2022-11-13T11:36:03.613Z,32.06
2022-11-13T11:39:11.044Z,32.07
2022-11-13T11:42:24.551Z,32.06
2022-11-13T11:45:46.038Z,32.07
2022-11-13T11:48:37.016Z,32.06
2022-11-13T11:51:34.474Z,31.99
2022-11-13T11:54:29.396Z,32.05
2022-11-13T11:57:30.887Z,31.95
2022-11-13T12:00:23.682Z,32.00
2022-11-13T12:03:50.699Z,32.02
2022-11-13T12:07:12.345Z,32.05
2022-11-13T12:10:43.313Z,32.11
2022-11-13T12:14:04.146Z,32.07
2022-11-13T12:17:17.540Z,32.05
2022-11-13T12:20:32.339Z,32.06
2022-11-13T12:23:42.613Z,32.08
2022-11-13T12:27:02.852Z,32.11
2022-11-13T12:30:03.164Z,32.14
2022-11-13T12:33:17.612Z,32.03
2022-11-13T12:36:07.966Z,32.13
2022-11-13T12:39:25.268Z,32.06
2022-11-13T12:42:18.220Z,32.02
2022-11-13T12:45:23.709Z,32.00
2022-11-13T12:48:19.802Z,31.98
2022-11-13T12:51:11.002Z,31.86
2022-11-13T12:54:00.280Z,31.80
2022-11-13T12:56:49.224Z,31.70
2022-11-13T12:59:47.278Z,31.76
2022-11-13T13:02:58.280Z,31.75
2022-11-13T13:06:11.782Z,31.74
2022-11-13T13:09:42.245Z,31.63
2022-11-13T13:13:02.642Z,31.69
2022-11-13T13:16:07.782Z,31.69
2022-11-13T13:19:08.556Z,31.59
2022-11-13T13:21:58.741Z,31.52
2022-11-13T13:24:49.488Z,31.49
2022-11-13T13:27:42.418Z,31.40
2022-11-13T13:30:34.360Z,31.48
2022-11-13T13:33:47.614Z,31.39
2022-11-13T13:37:01.516Z,31.40
2022-11-13T13:40:14.981Z,31.37
2022-11-13T13:43:21.768Z,31.37
2022-11-13T13:46:18.395Z,31.31
2022-11-13T13:49:17.180Z,31.32
2022-11-13T13:52:08.028Z,31.34
2022-11-13T13:54:57.577Z,31.26
2022-11-13T13:57:49.189Z,31.32
2022-11-13T14:00:59.047Z,31.28
2022-11-13T14:03:47.692Z,31.32
2022-11-13T14:06:36.822Z,31.32
2022-11-13T14:09:31.065Z,31.35
2022-11-13T14:12:25.338Z,31.40
2022-11-13T14:15:30.948Z,31.43
2022-11-13T14:18:21.333Z,31.40
2022-11-13T14:21:36.558Z,31.40
2022-11-13T14:25:04.397Z,31.47
2022-11-13T14:27:54.548Z,31.49
2022-11-13T14:30:44.037Z,31.50
2022-11-13T14:33:39.518Z,31.49
2022-11-13T14:36:34.834Z,31.55
2022-11-13T14:39:32.787Z,31.48
2022-11-13T14:42:28.051Z,31.47
2022-11-13T14:45:25.338Z,31.56
2022-11-13T14:48:34.855Z,31.53
2022-11-13T14:51:28.294Z,31.56
2022-11-13T14:54:53.211Z,31.57
2022-11-13T14:57:51.410Z,31.55
2022-11-13T15:00:42.024Z,31.52
2022-11-13T15:03:32.161Z,31.55
2022-11-13T15:06:23.805Z,31.55
2022-11-13T15:09:19.721Z,31.57
2022-11-13T15:12:09.246Z,31.58
2022-11-13T15:14:58.485Z,31.57
2022-11-13T15:17:49.554Z,31.56
2022-11-13T15:20:38.680Z,31.58
2022-11-13T15:23:29.413Z,31.53
2022-11-13T15:26:18.738Z,31.49
2022-11-13T15:29:09.595Z,31.50
2022-11-13T15:31:58.584Z,31.48
2022-11-13T15:34:48.172Z,31.47
2022-11-13T15:37:37.066Z,31.41
2022-11-13T15:40:26.549Z,31.45
2022-11-13T15:43:24.933Z,31.42
2022-11-13T15:46:18.647Z,31.41
2022-11-13T15:49:07.450Z,31.37
2022-11-13T15:51:56.205Z,31.38
2022-11-13T15:54:45.096Z,31.36
2022-11-13T15:57:33.865Z,31.34
2022-11-13T16:00:27.138Z,31.33
2022-11-13T16:03:16.302Z,31.28
2022-11-13T16:06:04.563Z,31.27
2022-11-13T16:08:53.308Z,31.22
2022-11-13T16:11:41.970Z,31.24
2022-11-13T16:14:30.592Z,31.23
2022-11-13T16:17:23.864Z,31.23
2022-11-13T16:20:15.159Z,31.17
2022-11-13T16:23:03.544Z,31.20
2022-11-13T16:25:52.774Z,31.18
2022-11-13T16:29:07.326Z,31.19
2022-11-13T16:31:50.756Z,31.19
2022-11-13T16:34:41.577Z,31.18
2022-11-13T16:37:30.082Z,31.19
2022-11-13T16:40:28.118Z,31.15
2022-11-13T16:43:16.429Z,31.17
2022-11-13T16:46:05.328Z,31.18
2022-11-13T16:48:53.670Z,31.18
2022-11-13T16:51:42.324Z,31.19
2022-11-13T16:54:30.966Z,31.18
2022-11-13T16:57:19.393Z,31.17
2022-11-13T17:00:11.243Z,31.17
2022-11-13T17:03:00.076Z,31.19
2022-11-13T17:05:48.480Z,31.12
2022-11-13T17:08:37.163Z,31.13
2022-11-13T17:11:27.060Z,31.16
2022-11-13T17:14:16.442Z,31.15
2022-11-13T17:17:06.484Z,31.17
2022-11-13T17:19:55.187Z,31.16
2022-11-13T17:22:50.339Z,31.16
2022-11-13T17:25:38.705Z,31.17
2022-11-13T17:28:27.433Z,31.17
2022-11-13T17:31:16.039Z,31.17
2022-11-13T17:34:04.307Z,31.16
2022-11-13T17:36:53.051Z,31.14
2022-11-13T17:39:41.824Z,31.16
2022-11-13T17:42:30.797Z,31.14
2022-11-13T17:45:19.595Z,31.15
2022-11-13T17:48:08.120Z,31.10
2022-11-13T17:51:01.032Z,31.11
2022-11-13T17:53:49.547Z,31.12
2022-11-13T17:56:39.889Z,31.10
2022-11-13T17:59:28.425Z,31.09
2022-11-13T18:02:16.547Z,31.09
2022-11-13T18:05:06.382Z,31.09
2022-11-13T18:07:55.056Z,31.08
2022-11-13T18:10:45.218Z,31.07
2022-11-13T18:13:33.766Z,31.07
2022-11-13T18:16:33.592Z,31.04
2022-11-13T18:19:22.414Z,31.07
2022-11-13T18:22:11.556Z,31.05
2022-11-13T18:25:00.540Z,31.06
2022-11-13T18:27:49.181Z,31.04
2022-11-13T18:30:41.541Z,31.04
2022-11-13T18:33:30.595Z,31.04
2022-11-13T18:36:20.118Z,31.02
2022-11-13T18:39:11.486Z,31.04
2022-11-13T18:42:04.031Z,31.01
2022-11-13T18:44:52.417Z,31.03
2022-11-13T18:47:40.644Z,31.00
2022-11-13T18:50:29.942Z,31.01
2022-11-13T18:53:18.705Z,30.99
2022-11-13T18:56:10.683Z,30.99
2022-11-13T18:59:01.027Z,31.01
2022-11-13T19:01:49.566Z,31.00
2022-11-13T19:04:38.580Z,30.99
2022-11-13T19:07:27.245Z,30.98
2022-11-13T19:10:15.746Z,30.99
2022-11-13T19:13:04.468Z,30.98
2022-11-13T19:15:53.182Z,30.97
2022-11-13T19:18:44.895Z,30.96
2022-11-13T19:21:35.494Z,30.97
2022-11-13T19:24:24.342Z,30.96
2022-11-13T19:27:13.082Z,30.97
2022-11-13T19:30:01.807Z,30.95
2022-11-13T19:32:50.144Z,30.95
2022-11-13T19:35:39.497Z,30.96
2022-11-13T19:38:29.920Z,30.95
2022-11-13T19:41:19.024Z,30.94
2022-11-13T19:44:08.731Z,30.94
2022-11-13T19:46:57.234Z,30.93
2022-11-13T19:49:45.580Z,30.93
2022-11-13T19:52:34.268Z,30.94
2022-11-13T19:55:22.662Z,30.93
2022-11-13T19:58:11.498Z,30.92
2022-11-13T20:01:01.092Z,30.91
2022-11-13T20:03:49.520Z,30.92
2022-11-13T20:06:38.125Z,30.90
2022-11-13T20:09:26.568Z,30.90
2022-11-13T20:12:15.178Z,30.88
2022-11-13T20:15:03.675Z,30.88
2022-11-13T20:17:52.405Z,30.89
2022-11-13T20:20:49.183Z,30.86
2022-11-13T20:23:41.948Z,30.87
2022-11-13T20:26:30.789Z,30.88
2022-11-13T20:29:19.238Z,30.88
2022-11-13T20:32:08.075Z,30.87
2022-11-13T20:34:56.583Z,30.86
2022-11-13T20:37:45.008Z,30.87
2022-11-13T20:40:34.093Z,30.86
2022-11-13T20:43:22.450Z,30.86
2022-11-13T20:46:15.379Z,30.84
2022-11-13T20:49:04.196Z,30.86
2022-11-13T20:51:56.778Z,30.83
2022-11-13T20:54:45.785Z,30.82
2022-11-13T20:57:39.688Z,30.82
2022-11-13T21:00:29.436Z,30.85
2022-11-13T21:03:18.049Z,30.83
2022-11-13T21:06:07.099Z,30.82
2022-11-13T21:08:58.410Z,30.83
2022-11-13T21:11:47.112Z,30.84
2022-11-13T21:14:35.623Z,30.83
2022-11-13T21:17:24.397Z,30.83
2022-11-13T21:20:13.631Z,30.83
2022-11-13T21:23:02.431Z,30.83
2022-11-13T21:26:00.301Z,30.82
2022-11-13T21:28:49.217Z,30.82
2022-11-13T21:31:37.867Z,30.83
2022-11-13T21:34:26.548Z,30.83
2022-11-13T21:37:16.697Z,30.80
2022-11-13T21:40:05.290Z,30.81
2022-11-13T21:42:54.567Z,30.82
2022-11-13T21:45:43.811Z,30.82
2022-11-13T21:48:33.388Z,30.82
2022-11-13T21:51:22.118Z,30.80
2022-11-13T21:54:11.726Z,30.79
2022-11-13T21:57:00.157Z,30.76
2022-11-13T21:59:48.783Z,30.77
2022-11-13T22:02:37.860Z,30.75
2022-11-13T22:05:26.569Z,30.71
2022-11-13T22:08:15.059Z,30.71
2022-11-13T22:11:04.066Z,30.75
2022-11-13T22:13:52.417Z,30.76
2022-11-13T22:16:43.731Z,30.76
2022-11-13T22:19:35.928Z,30.75
2022-11-13T22:22:24.939Z,30.76
2022-11-13T22:25:13.643Z,30.77
2022-11-13T22:28:02.475Z,30.75
2022-11-13T22:30:50.969Z,30.71
2022-11-13T22:33:42.392Z,30.72
2022-11-13T22:36:36.663Z,30.70
2022-11-13T22:39:25.472Z,30.72
2022-11-13T22:42:14.277Z,30.75
2022-11-13T22:45:07.309Z,30.76
2022-11-13T22:48:08.489Z,30.71
2022-11-13T22:50:57.197Z,30.75
2022-11-13T22:53:50.212Z,30.75
2022-11-13T22:56:40.177Z,30.73
2022-11-13T22:59:39.585Z,30.75
2022-11-13T23:02:28.098Z,30.73
2022-11-13T23:05:16.796Z,30.63
2022-11-13T23:08:05.305Z,30.58
2022-11-13T23:10:57.954Z,30.50
2022-11-13T23:13:50.047Z,30.43
2022-11-13T23:16:39.309Z,30.47
2022-11-13T23:19:27.927Z,30.50
2022-11-13T23:22:16.599Z,30.52
2022-11-13T23:25:05.133Z,30.53
2022-11-13T23:27:53.804Z,30.56
2022-11-13T23:30:42.291Z,30.53
2022-11-13T23:33:31.234Z,30.51
2022-11-13T23:36:20.364Z,30.52
2022-11-13T23:39:08.458Z,30.52
2022-11-13T23:41:57.236Z,30.56
2022-11-13T23:44:45.437Z,30.53
2022-11-13T23:47:33.782Z,30.51
2022-11-13T23:50:22.512Z,30.51
2022-11-13T23:53:11.215Z,30.52
2022-11-13T23:55:59.769Z,30.54
2022-11-13T23:58:48.382Z,30.55
